sensor_id;sensor_type;location;lat;lon;timestamp;pressure;altitude;pressure_sealevel;temperature;humidity
53647;BME280;39550;52.230;5.194;2024-02-28T00:01:01;101886.16;;;5.27;93.19
53647;BME280;39550;52.230;5.194;2024-02-28T00:03:27;101885.31;;;5.26;93.55
53647;BME280;39550;52.230;5.194;2024-02-28T00:05:52;101887.06;;;5.27;93.26
53647;BME280;39550;52.230;5.194;2024-02-28T00:08:17;101896.38;;;5.27;93.63
53647;BME280;39550;52.230;5.194;2024-02-28T00:10:44;101883.53;;;5.25;92.97
53647;BME280;39550;52.230;5.194;2024-02-28T00:13:09;101879.28;;;5.26;93.36
53647;BME280;39550;52.230;5.194;2024-02-28T00:15:35;101889.53;;;5.26;93.40
53647;BME280;39550;52.230;5.194;2024-02-28T00:18:00;101880.72;;;5.19;92.84
53647;BME280;39550;52.230;5.194;2024-02-28T00:20:25;101882.69;;;5.25;93.34
53647;BME280;39550;52.230;5.194;2024-02-28T00:22:52;101883.47;;;5.24;93.27
53647;BME280;39550;52.230;5.194;2024-02-28T00:25:17;101879.28;;;5.26;92.51
53647;BME280;39550;52.230;5.194;2024-02-28T00:27:43;101883.53;;;5.25;92.98
53647;BME280;39550;52.230;5.194;2024-02-28T00:30:08;101886.81;;;5.23;92.80
53647;BME280;39550;52.230;5.194;2024-02-28T00:32:34;101892.91;;;5.25;93.20
53647;BME280;39550;52.230;5.194;2024-02-28T00:34:59;101889.38;;;5.23;93.47
53647;BME280;39550;52.230;5.194;2024-02-28T00:37:24;101892.72;;;5.22;93.26
53647;BME280;39550;52.230;5.194;2024-02-28T00:39:50;101882.50;;;5.22;92.83
53647;BME280;39550;52.230;5.194;2024-02-28T00:42:16;101894.34;;;5.20;93.13
53647;BME280;39550;52.230;5.194;2024-02-28T00:44:41;101882.50;;;5.22;92.87
53647;BME280;39550;52.230;5.194;2024-02-28T00:47:08;101875.59;;;5.19;93.00
53647;BME280;39550;52.230;5.194;2024-02-28T00:49:33;101869.47;;;5.16;92.63
53647;BME280;39550;52.230;5.194;2024-02-28T00:51:59;101877.13;;;5.16;93.06
53647;BME280;39550;52.230;5.194;2024-02-28T00:54:25;101889.25;;;5.20;92.60
53647;BME280;39550;52.230;5.194;2024-02-28T00:56:51;101881.66;;;5.21;92.49
53647;BME280;39550;52.230;5.194;2024-02-28T00:59:16;101873.06;;;5.19;93.39
53647;BME280;39550;52.230;5.194;2024-02-28T01:01:41;101882.38;;;5.19;92.97
53647;BME280;39550;52.230;5.194;2024-02-28T01:04:07;101870.94;;;5.10;92.86
53647;BME280;39550;52.230;5.194;2024-02-28T01:06:32;101875.50;;;5.18;93.07
53647;BME280;39550;52.230;5.194;2024-02-28T01:08:58;101876.34;;;5.17;92.64
53647;BME280;39550;52.230;5.194;2024-02-28T01:11:24;101878.91;;;5.17;93.16
53647;BME280;39550;52.230;5.194;2024-02-28T01:13:49;101877.13;;;5.16;92.70
53647;BME280;39550;52.230;5.194;2024-02-28T01:16:15;101872.03;;;5.16;93.55
53647;BME280;39550;52.230;5.194;2024-02-28T01:18:40;101879.69;;;5.16;92.98
53647;BME280;39550;52.230;5.194;2024-02-28T01:21:05;101880.47;;;5.15;93.20
53647;BME280;39550;52.230;5.194;2024-02-28T01:23:30;101877.13;;;5.16;92.91
53647;BME280;39550;52.230;5.194;2024-02-28T01:25:56;101888.22;;;5.16;92.52
53647;BME280;39550;52.230;5.194;2024-02-28T01:28:21;101886.50;;;5.15;93.19
53647;BME280;39550;52.230;5.194;2024-02-28T01:30:48;101877.00;;;5.13;93.40
53647;BME280;39550;52.230;5.194;2024-02-28T01:33:13;101877.00;;;5.13;92.85
53647;BME280;39550;52.230;5.194;2024-02-28T01:35:39;101878.72;;;5.14;92.51
53647;BME280;39550;52.230;5.194;2024-02-28T01:38:04;101870.13;;;5.11;92.88
53647;BME280;39550;52.230;5.194;2024-02-28T01:40:29;101869.25;;;5.11;92.54
53647;BME280;39550;52.230;5.194;2024-02-28T01:42:55;101865.81;;;5.10;93.04
53647;BME280;39550;52.230;5.194;2024-02-28T01:45:20;101872.63;;;5.10;92.78
53647;BME280;39550;52.230;5.194;2024-02-28T01:47:45;101871.72;;;5.09;92.52
53647;BME280;39550;52.230;5.194;2024-02-28T01:50:11;101871.72;;;5.09;92.65
53647;BME280;39550;52.230;5.194;2024-02-28T01:52:38;101869.25;;;5.11;93.02
53647;BME280;39550;52.230;5.194;2024-02-28T01:55:04;101870.94;;;5.10;92.46
53647;BME280;39550;52.230;5.194;2024-02-28T01:57:31;101861.50;;;5.09;92.87
53647;BME280;39550;52.230;5.194;2024-02-28T01:59:57;101859.78;;;5.08;93.13
53647;BME280;39550;52.230;5.194;2024-02-28T02:02:23;101863.13;;;5.07;92.82
53647;BME280;39550;52.230;5.194;2024-02-28T02:04:48;101862.25;;;5.07;93.18
53647;BME280;39550;52.230;5.194;2024-02-28T02:07:14;101863.13;;;5.07;92.60
53647;BME280;39550;52.230;5.194;2024-02-28T02:09:39;101868.22;;;5.07;92.85
53647;BME280;39550;52.230;5.194;2024-02-28T02:12:04;101861.38;;;5.06;93.34
53647;BME280;39550;52.230;5.194;2024-02-28T02:14:30;101866.47;;;5.06;92.76
53647;BME280;39550;52.230;5.194;2024-02-28T02:16:55;101864.75;;;5.05;93.28
53647;BME280;39550;52.230;5.194;2024-02-28T02:19:20;101864.75;;;5.05;92.78
53647;BME280;39550;52.230;5.194;2024-02-28T02:21:52;101857.75;;;5.01;92.78
53647;BME280;39550;52.230;5.194;2024-02-28T02:24:18;101874.97;;;5.05;93.08
53647;BME280;39550;52.230;5.194;2024-02-28T02:26:43;101870.72;;;5.06;92.95
53647;BME280;39550;52.230;5.194;2024-02-28T02:29:12;101868.09;;;5.04;92.70
53647;BME280;39550;52.230;5.194;2024-02-28T02:31:37;101872.31;;;5.04;92.75
53647;BME280;39550;52.230;5.194;2024-02-28T02:34:02;101872.31;;;5.04;92.45
53647;BME280;39550;52.230;5.194;2024-02-28T02:36:28;101869.75;;;5.04;93.42
53647;BME280;39550;52.230;5.194;2024-02-28T02:38:53;101865.53;;;5.04;92.26
53647;BME280;39550;52.230;5.194;2024-02-28T02:41:18;101868.09;;;5.04;92.95
53647;BME280;39550;52.230;5.194;2024-02-28T02:43:43;101859.53;;;5.04;92.93
53647;BME280;39550;52.230;5.194;2024-02-28T02:46:09;101862.84;;;5.01;92.98
53647;BME280;39550;52.230;5.194;2024-02-28T02:48:34;101862.03;;;5.02;92.28
53647;BME280;39550;52.230;5.194;2024-02-28T02:50:59;101855.19;;;5.01;93.38
53647;BME280;39550;52.230;5.194;2024-02-28T02:53:25;101862.84;;;5.01;93.21
53647;BME280;39550;52.230;5.194;2024-02-28T02:55:50;101857.75;;;5.01;92.61
53647;BME280;39550;52.230;5.194;2024-02-28T02:58:15;101861.09;;;5.00;93.17
53647;BME280;39550;52.230;5.194;2024-02-28T03:00:40;101854.22;;;4.99;93.00
53647;BME280;39550;52.230;5.194;2024-02-28T03:03:06;101855.91;;;4.99;92.84
53647;BME280;39550;52.230;5.194;2024-02-28T03:05:31;101848.97;;;4.96;92.93
53647;BME280;39550;52.230;5.194;2024-02-28T03:07:56;101848.19;;;4.97;92.42
53647;BME280;39550;52.230;5.194;2024-02-28T03:10:22;101851.59;;;4.98;92.79
53647;BME280;39550;52.230;5.194;2024-02-28T03:12:48;101853.34;;;4.99;92.85
53647;BME280;39550;52.230;5.194;2024-02-28T03:15:13;101847.34;;;4.98;92.19
53647;BME280;39550;52.230;5.194;2024-02-28T03:17:38;101854.09;;;4.96;92.91
53647;BME280;39550;52.230;5.194;2024-02-28T03:20:04;101848.97;;;4.96;92.55
53647;BME280;39550;52.230;5.194;2024-02-28T03:22:32;101849.84;;;4.97;92.52
53647;BME280;39550;52.230;5.194;2024-02-28T03:24:57;101856.56;;;4.94;92.64
53647;BME280;39550;52.230;5.194;2024-02-28T03:27:22;101849.78;;;4.95;92.47
53647;BME280;39550;52.230;5.194;2024-02-28T03:29:47;101845.47;;;4.94;92.87
53647;BME280;39550;52.230;5.194;2024-02-28T03:32:13;101845.47;;;4.94;93.67
53647;BME280;39550;52.230;5.194;2024-02-28T03:34:38;101847.22;;;4.95;92.46
53647;BME280;39550;52.230;5.194;2024-02-28T03:37:03;101850.63;;;4.95;92.46
53647;BME280;39550;52.230;5.194;2024-02-28T03:39:29;101847.22;;;4.95;92.71
53647;BME280;39550;52.230;5.194;2024-02-28T03:41:54;101842.84;;;4.92;92.86
53647;BME280;39550;52.230;5.194;2024-02-28T03:44:19;101846.19;;;4.91;93.55
53647;BME280;39550;52.230;5.194;2024-02-28T03:46:46;101841.97;;;4.92;92.84
53647;BME280;39550;52.230;5.194;2024-02-28T03:49:11;101844.53;;;4.92;92.85
53647;BME280;39550;52.230;5.194;2024-02-28T03:51:40;101848.84;;;4.93;93.09
53647;BME280;39550;52.230;5.194;2024-02-28T03:54:06;101850.44;;;4.91;93.28
53647;BME280;39550;52.230;5.194;2024-02-28T03:56:31;101850.44;;;4.91;93.20
53647;BME280;39550;52.230;5.194;2024-02-28T03:58:56;101849.56;;;4.90;93.32
53647;BME280;39550;52.230;5.194;2024-02-28T04:01:22;101849.56;;;4.90;93.14
53647;BME280;39550;52.230;5.194;2024-02-28T04:03:47;101850.44;;;4.91;92.85
53647;BME280;39550;52.230;5.194;2024-02-28T04:06:12;101839.94;;;4.85;92.96
53647;BME280;39550;52.230;5.194;2024-02-28T04:08:37;101860.66;;;4.91;92.99
53647;BME280;39550;52.230;5.194;2024-02-28T04:11:03;101856.34;;;4.90;93.03
53647;BME280;39550;52.230;5.194;2024-02-28T04:13:28;101854.59;;;4.89;92.87
53647;BME280;39550;52.230;5.194;2024-02-28T04:15:54;101852.63;;;4.83;92.86
53647;BME280;39550;52.230;5.194;2024-02-28T04:18:19;101851.94;;;4.87;93.33
53647;BME280;39550;52.230;5.194;2024-02-28T04:20:44;101855.41;;;4.88;93.28
53647;BME280;39550;52.230;5.194;2024-02-28T04:23:10;101868.16;;;4.88;92.60
53647;BME280;39550;52.230;5.194;2024-02-28T04:25:35;101872.47;;;4.89;92.55
53647;BME280;39550;52.230;5.194;2024-02-28T04:28:01;101867.28;;;4.87;92.83
53647;BME280;39550;52.230;5.194;2024-02-28T04:30:27;101866.41;;;4.87;93.30
53647;BME280;39550;52.230;5.194;2024-02-28T04:32:53;101863.84;;;4.87;92.71
53647;BME280;39550;52.230;5.194;2024-02-28T04:35:18;101869.75;;;4.86;93.02
53647;BME280;39550;52.230;5.194;2024-02-28T04:37:45;101874.06;;;4.87;93.66
53647;BME280;39550;52.230;5.194;2024-02-28T04:40:11;101865.47;;;4.85;93.04
53647;BME280;39550;52.230;5.194;2024-02-28T04:42:37;101877.41;;;4.86;93.42
53647;BME280;39550;52.230;5.194;2024-02-28T04:45:03;101884.28;;;4.87;93.57
53647;BME280;39550;52.230;5.194;2024-02-28T04:47:28;101882.53;;;4.86;92.76
53647;BME280;39550;52.230;5.194;2024-02-28T04:49:54;101870.94;;;4.74;93.24
53647;BME280;39550;52.230;5.194;2024-02-28T04:52:19;101887.63;;;4.86;93.53
53647;BME280;39550;52.230;5.194;2024-02-28T04:54:45;101890.19;;;4.86;93.33
53647;BME280;39550;52.230;5.194;2024-02-28T04:57:10;101889.25;;;4.84;93.49
53647;BME280;39550;52.230;5.194;2024-02-28T04:59:35;101886.69;;;4.84;93.49
53647;BME280;39550;52.230;5.194;2024-02-28T05:02:01;101881.59;;;4.84;92.76
53647;BME280;39550;52.230;5.194;2024-02-28T05:04:26;101884.16;;;4.84;93.47
53647;BME280;39550;52.230;5.194;2024-02-28T05:06:52;101883.28;;;4.83;92.82
53647;BME280;39550;52.230;5.194;2024-02-28T05:09:17;101889.25;;;4.84;93.28
53647;BME280;39550;52.230;5.194;2024-02-28T05:11:43;101878.91;;;4.81;93.09
53647;BME280;39550;52.230;5.194;2024-02-28T05:14:09;101885.91;;;4.85;93.68
53647;BME280;39550;52.230;5.194;2024-02-28T05:16:35;101880.81;;;4.85;92.76
53647;BME280;39550;52.230;5.194;2024-02-28T05:19:01;101886.69;;;4.84;92.63
53647;BME280;39550;52.230;5.194;2024-02-28T05:21:26;101884.16;;;4.84;93.52
53647;BME280;39550;52.230;5.194;2024-02-28T05:23:51;101885.72;;;4.82;93.40
53647;BME280;39550;52.230;5.194;2024-02-28T05:26:17;101892.59;;;4.83;93.22
53647;BME280;39550;52.230;5.194;2024-02-28T05:28:42;101885.72;;;4.82;92.89
53647;BME280;39550;52.230;5.194;2024-02-28T05:31:24;101889.19;;;4.82;92.87
53647;BME280;39550;52.230;5.194;2024-02-28T05:33:51;101885.72;;;4.82;93.64
53647;BME280;39550;52.230;5.194;2024-02-28T05:36:17;101889.25;;;4.84;93.24
53647;BME280;39550;52.230;5.194;2024-02-28T05:38:43;101887.50;;;4.83;93.70
53647;BME280;39550;52.230;5.194;2024-02-28T05:41:08;101885.72;;;4.82;92.78
53647;BME280;39550;52.230;5.194;2024-02-28T05:43:33;101887.50;;;4.83;93.77
53647;BME280;39550;52.230;5.194;2024-02-28T05:45:58;101884.94;;;4.83;93.64
53647;BME280;39550;52.230;5.194;2024-02-28T05:48:24;101872.91;;;4.80;93.45
53647;BME280;39550;52.230;5.194;2024-02-28T05:50:49;101887.50;;;4.83;93.54
53647;BME280;39550;52.230;5.194;2024-02-28T05:53:14;101887.50;;;4.83;92.91
53647;BME280;39550;52.230;5.194;2024-02-28T05:55:40;101889.13;;;4.81;93.25
53647;BME280;39550;52.230;5.194;2024-02-28T05:58:05;101890.84;;;4.82;93.45
53647;BME280;39550;52.230;5.194;2024-02-28T06:00:30;101890.84;;;4.82;92.75
53647;BME280;39550;52.230;5.194;2024-02-28T06:02:55;101895.94;;;4.82;93.73
53647;BME280;39550;52.230;5.194;2024-02-28T06:05:21;101895.09;;;4.81;92.94
53647;BME280;39550;52.230;5.194;2024-02-28T06:07:46;101890.84;;;4.82;93.14
53647;BME280;39550;52.230;5.194;2024-02-28T06:10:11;101887.34;;;4.80;92.71
53647;BME280;39550;52.230;5.194;2024-02-28T06:12:37;101888.22;;;4.80;93.00
53647;BME280;39550;52.230;5.194;2024-02-28T06:15:03;101884.81;;;4.80;92.87
53647;BME280;39550;52.230;5.194;2024-02-28T06:17:29;101890.69;;;4.78;93.73
53647;BME280;39550;52.230;5.194;2024-02-28T06:19:54;101888.94;;;4.77;94.08
53647;BME280;39550;52.230;5.194;2024-02-28T06:22:19;101899.16;;;4.77;93.20
53647;BME280;39550;52.230;5.194;2024-02-28T06:24:45;101894.06;;;4.77;93.21
53647;BME280;39550;52.230;5.194;2024-02-28T06:27:11;101902.53;;;4.76;93.79
53647;BME280;39550;52.230;5.194;2024-02-28T06:29:40;101901.72;;;4.77;93.97
53647;BME280;39550;52.230;5.194;2024-02-28T06:32:06;101896.59;;;4.77;93.68
53647;BME280;39550;52.230;5.194;2024-02-28T06:34:31;101896.59;;;4.77;94.02
53647;BME280;39550;52.230;5.194;2024-02-28T06:36:57;101906.81;;;4.77;93.65
53647;BME280;39550;52.230;5.194;2024-02-28T06:39:22;101919.59;;;4.77;93.63
53647;BME280;39550;52.230;5.194;2024-02-28T06:41:47;101919.59;;;4.77;93.64
53647;BME280;39550;52.230;5.194;2024-02-28T06:44:15;101921.34;;;4.78;93.53
53647;BME280;39550;52.230;5.194;2024-02-28T06:46:41;101919.59;;;4.77;93.94
53647;BME280;39550;52.230;5.194;2024-02-28T06:49:06;101925.59;;;4.78;93.22
53647;BME280;39550;52.230;5.194;2024-02-28T06:51:32;101940.00;;;4.77;93.94
53647;BME280;39550;52.230;5.194;2024-02-28T06:53:57;101943.41;;;4.76;93.79
53647;BME280;39550;52.230;5.194;2024-02-28T06:56:22;101940.84;;;4.76;93.19
53647;BME280;39550;52.230;5.194;2024-02-28T06:58:47;101943.41;;;4.76;93.96
53647;BME280;39550;52.230;5.194;2024-02-28T07:01:13;101939.16;;;4.77;93.83
53647;BME280;39550;52.230;5.194;2024-02-28T07:03:38;101943.41;;;4.76;94.09
53647;BME280;39550;52.230;5.194;2024-02-28T07:06:04;101947.69;;;4.77;93.96
53647;BME280;39550;52.230;5.194;2024-02-28T07:08:31;101948.50;;;4.76;94.09
53647;BME280;39550;52.230;5.194;2024-02-28T07:10:57;101946.81;;;4.77;93.88
53647;BME280;39550;52.230;5.194;2024-02-28T07:13:22;101955.34;;;4.77;93.29
53647;BME280;39550;52.230;5.194;2024-02-28T07:15:48;101951.84;;;4.75;93.76
53647;BME280;39550;52.230;5.194;2024-02-28T07:18:14;101950.22;;;4.77;93.80
53647;BME280;39550;52.230;5.194;2024-02-28T07:20:40;101939.00;;;4.74;93.17
53647;BME280;39550;52.230;5.194;2024-02-28T07:23:08;101951.06;;;4.76;94.28
53647;BME280;39550;52.230;5.194;2024-02-28T07:25:33;101949.50;;;4.80;93.35
53647;BME280;39550;52.230;5.194;2024-02-28T07:27:58;101955.50;;;4.81;93.57
53647;BME280;39550;52.230;5.194;2024-02-28T07:30:28;101956.31;;;4.80;93.21
53647;BME280;39550;52.230;5.194;2024-02-28T07:32:53;101947.47;;;4.73;94.14
53647;BME280;39550;52.230;5.194;2024-02-28T07:35:19;101963.91;;;4.78;93.22
53647;BME280;39550;52.230;5.194;2024-02-28T07:37:45;101957.53;;;4.70;93.79
53647;BME280;39550;52.230;5.194;2024-02-28T07:40:11;101975.75;;;4.77;93.96
53647;BME280;39550;52.230;5.194;2024-02-28T07:42:37;101981.78;;;4.78;93.35
53647;BME280;39550;52.230;5.194;2024-02-28T07:45:02;101975.75;;;4.77;93.87
53647;BME280;39550;52.230;5.194;2024-02-28T07:47:27;101987.75;;;4.78;94.21
53647;BME280;39550;52.230;5.194;2024-02-28T07:49:53;101984.25;;;4.76;93.84
53647;BME280;39550;52.230;5.194;2024-02-28T07:52:19;101983.28;;;4.74;93.94
53647;BME280;39550;52.230;5.194;2024-02-28T07:54:44;101970.22;;;4.68;94.18
53647;BME280;39550;52.230;5.194;2024-02-28T07:57:10;101989.50;;;4.80;94.04
53647;BME280;39550;52.230;5.194;2024-02-28T07:59:42;101988.53;;;4.77;93.31
53647;BME280;39550;52.230;5.194;2024-02-28T08:02:08;101991.09;;;4.77;93.73
53647;BME280;39550;52.230;5.194;2024-02-28T08:04:33;101994.47;;;4.76;94.31
53647;BME280;39550;52.230;5.194;2024-02-28T08:06:59;101994.47;;;4.76;93.55
53647;BME280;39550;52.230;5.194;2024-02-28T08:09:24;101994.47;;;4.76;94.44
53647;BME280;39550;52.230;5.194;2024-02-28T08:11:50;101997.97;;;4.78;93.56
53647;BME280;39550;52.230;5.194;2024-02-28T08:14:15;102003.97;;;4.79;93.53
53647;BME280;39550;52.230;5.194;2024-02-28T08:16:40;102008.16;;;4.78;93.80
53647;BME280;39550;52.230;5.194;2024-02-28T08:19:05;102003.06;;;4.78;94.00
53647;BME280;39550;52.230;5.194;2024-02-28T08:21:31;102008.97;;;4.77;93.43
53647;BME280;39550;52.230;5.194;2024-02-28T08:23:56;102007.06;;;4.73;94.15
53647;BME280;39550;52.230;5.194;2024-02-28T08:26:23;102008.16;;;4.78;93.40
53647;BME280;39550;52.230;5.194;2024-02-28T08:28:48;102008.16;;;4.78;93.70
53647;BME280;39550;52.230;5.194;2024-02-28T08:31:13;102017.53;;;4.78;93.60
53647;BME280;39550;52.230;5.194;2024-02-28T08:33:40;101995.75;;;4.68;93.82
53647;BME280;39550;52.230;5.194;2024-02-28T08:36:06;102011.50;;;4.77;94.25
53647;BME280;39550;52.230;5.194;2024-02-28T08:38:31;102018.31;;;4.77;94.04
53647;BME280;39550;52.230;5.194;2024-02-28T08:40:56;102025.97;;;4.77;94.31
53647;BME280;39550;52.230;5.194;2024-02-28T08:43:22;102026.03;;;4.78;93.77
53647;BME280;39550;52.230;5.194;2024-02-28T08:45:47;102026.84;;;4.77;94.46
53647;BME280;39550;52.230;5.194;2024-02-28T08:48:12;102031.94;;;4.77;94.02
53647;BME280;39550;52.230;5.194;2024-02-28T08:50:38;102027.66;;;4.76;94.07
53647;BME280;39550;52.230;5.194;2024-02-28T08:53:04;102029.38;;;4.77;94.18
53647;BME280;39550;52.230;5.194;2024-02-28T08:55:30;102022.63;;;4.78;94.12
53647;BME280;39550;52.230;5.194;2024-02-28T08:57:56;102031.16;;;4.78;94.61
53647;BME280;39550;52.230;5.194;2024-02-28T09:00:21;102028.59;;;4.78;94.02
53647;BME280;39550;52.230;5.194;2024-02-28T09:02:46;102013.84;;;4.73;94.57
53647;BME280;39550;52.230;5.194;2024-02-28T09:05:12;102027.03;;;4.81;93.75
53647;BME280;39550;52.230;5.194;2024-02-28T09:07:37;102015.03;;;4.80;94.35
53647;BME280;39550;52.230;5.194;2024-02-28T09:10:06;102002.13;;;4.76;94.12
53647;BME280;39550;52.230;5.194;2024-02-28T09:12:31;102014.47;;;4.85;94.06
53647;BME280;39550;52.230;5.194;2024-02-28T09:14:57;102011.91;;;4.85;94.43
53647;BME280;39550;52.230;5.194;2024-02-28T09:17:24;102004.31;;;4.87;94.28
53647;BME280;39550;52.230;5.194;2024-02-28T09:19:50;102011.06;;;4.85;94.41
53647;BME280;39550;52.230;5.194;2024-02-28T09:22:15;102013.59;;;4.85;94.68
53647;BME280;39550;52.230;5.194;2024-02-28T09:24:42;102011.06;;;4.85;94.11
53647;BME280;39550;52.230;5.194;2024-02-28T09:27:07;102010.97;;;4.83;94.60
53647;BME280;39550;52.230;5.194;2024-02-28T09:29:32;102011.84;;;4.84;94.66
53647;BME280;39550;52.230;5.194;2024-02-28T09:31:58;102016.22;;;4.86;93.71
53647;BME280;39550;52.230;5.194;2024-02-28T09:34:24;102013.75;;;4.88;93.98
53647;BME280;39550;52.230;5.194;2024-02-28T09:36:49;102013.75;;;4.88;94.51
53647;BME280;39550;52.230;5.194;2024-02-28T09:39:14;102013.75;;;4.88;94.38
53647;BME280;39550;52.230;5.194;2024-02-28T09:41:43;102021.41;;;4.88;94.15
53647;BME280;39550;52.230;5.194;2024-02-28T09:44:08;102015.50;;;4.89;94.59
53647;BME280;39550;52.230;5.194;2024-02-28T09:46:34;102032.56;;;4.90;94.01
53647;BME280;39550;52.230;5.194;2024-02-28T09:49:03;102026.59;;;4.89;93.50
53647;BME280;39550;52.230;5.194;2024-02-28T09:51:32;102030.84;;;4.89;93.40
53647;BME280;39550;52.230;5.194;2024-02-28T09:53:58;102030.84;;;4.89;94.48
53647;BME280;39550;52.230;5.194;2024-02-28T09:56:25;102037.69;;;4.90;93.87
53647;BME280;39550;52.230;5.194;2024-02-28T09:58:51;102037.69;;;4.90;93.69
53647;BME280;39550;52.230;5.194;2024-02-28T10:01:18;102045.34;;;4.90;94.38
53647;BME280;39550;52.230;5.194;2024-02-28T10:03:45;102048.78;;;4.90;93.53
53647;BME280;39550;52.230;5.194;2024-02-28T10:06:12;102041.13;;;4.90;93.86
53647;BME280;39550;52.230;5.194;2024-02-28T10:08:38;102041.19;;;4.92;94.38
53647;BME280;39550;52.230;5.194;2024-02-28T10:11:04;102032.75;;;4.93;94.48
53647;BME280;39550;52.230;5.194;2024-02-28T10:13:31;102034.47;;;4.94;93.97
53647;BME280;39550;52.230;5.194;2024-02-28T10:15:56;102028.56;;;4.95;93.64
53647;BME280;39550;52.230;5.194;2024-02-28T10:18:21;102027.78;;;4.96;93.83
53647;BME280;39550;52.230;5.194;2024-02-28T10:20:47;102031.28;;;4.98;94.20
53647;BME280;39550;52.230;5.194;2024-02-28T10:23:12;102020.19;;;4.98;94.06
53647;BME280;39550;52.230;5.194;2024-02-28T10:25:47;102016.59;;;4.94;93.57
53647;BME280;39550;52.230;5.194;2024-02-28T10:28:14;102025.38;;;4.99;94.04
53647;BME280;39550;52.230;5.194;2024-02-28T10:30:43;102030.56;;;5.01;93.54
53647;BME280;39550;52.230;5.194;2024-02-28T10:33:15;102028.00;;;5.01;94.31
53647;BME280;39550;52.230;5.194;2024-02-28T10:35:41;102026.34;;;5.01;93.74
53647;BME280;39550;52.230;5.194;2024-02-28T10:38:13;102024.72;;;5.03;93.55
53647;BME280;39550;52.230;5.194;2024-02-28T10:40:42;102029.19;;;5.07;93.27
53647;BME280;39550;52.230;5.194;2024-02-28T10:43:08;102017.22;;;5.06;94.55
53647;BME280;39550;52.230;5.194;2024-02-28T10:45:36;102012.91;;;5.05;94.64
53647;BME280;39550;52.230;5.194;2024-02-28T10:48:02;102011.31;;;5.07;93.92
53647;BME280;39550;52.230;5.194;2024-02-28T10:50:28;102008.75;;;5.07;94.68
53647;BME280;39550;52.230;5.194;2024-02-28T10:52:54;102011.44;;;5.10;94.37
53647;BME280;39550;52.230;5.194;2024-02-28T10:55:26;102014.97;;;5.13;94.04
53647;BME280;39550;52.230;5.194;2024-02-28T10:58:01;102019.19;;;5.12;93.88
53647;BME280;39550;52.230;5.194;2024-02-28T11:00:28;102010.66;;;5.11;94.06
53647;BME280;39550;52.230;5.194;2024-02-28T11:02:55;102016.69;;;5.14;93.70
53647;BME280;39550;52.230;5.194;2024-02-28T11:05:20;102009.13;;;5.15;93.59
53647;BME280;39550;52.230;5.194;2024-02-28T11:07:45;102009.03;;;5.14;94.28
53647;BME280;39550;52.230;5.194;2024-02-28T11:10:11;102019.34;;;5.15;93.63
53647;BME280;39550;52.230;5.194;2024-02-28T11:12:37;102010.94;;;5.18;94.52
53647;BME280;39550;52.230;5.194;2024-02-28T11:15:03;102013.09;;;5.26;94.57
53647;BME280;39550;52.230;5.194;2024-02-28T11:17:34;102007.72;;;5.22;93.86
53647;BME280;39550;52.230;5.194;2024-02-28T11:19:59;102007.06;;;5.26;94.10
53647;BME280;39550;52.230;5.194;2024-02-28T11:22:28;102002.78;;;5.25;94.84
53647;BME280;39550;52.230;5.194;2024-02-28T11:24:54;102003.59;;;5.24;94.87
53647;BME280;39550;52.230;5.194;2024-02-28T11:27:20;101993.38;;;5.24;94.64
53647;BME280;39550;52.230;5.194;2024-02-28T11:29:46;102007.91;;;5.25;94.91
53647;BME280;39550;52.230;5.194;2024-02-28T11:32:12;102006.22;;;5.25;95.17
53647;BME280;39550;52.230;5.194;2024-02-28T11:34:39;102001.97;;;5.26;94.62
53647;BME280;39550;52.230;5.194;2024-02-28T11:37:08;102001.97;;;5.26;94.58
53647;BME280;39550;52.230;5.194;2024-02-28T11:39:34;102001.09;;;5.25;95.22
53647;BME280;39550;52.230;5.194;2024-02-28T11:42:12;101988.41;;;5.27;95.03
53647;BME280;39550;52.230;5.194;2024-02-28T11:44:40;101992.72;;;5.28;94.99
53647;BME280;39550;52.230;5.194;2024-02-28T11:47:08;101971.09;;;5.21;94.66
53647;BME280;39550;52.230;5.194;2024-02-28T11:49:34;101987.59;;;5.28;94.59
53647;BME280;39550;52.230;5.194;2024-02-28T11:52:00;101979.13;;;5.29;94.29
53647;BME280;39550;52.230;5.194;2024-02-28T11:54:25;101981.69;;;5.29;95.25
53647;BME280;39550;52.230;5.194;2024-02-28T11:56:50;101982.50;;;5.28;94.49
53647;BME280;39550;52.230;5.194;2024-02-28T11:59:16;101985.19;;;5.31;94.22
53647;BME280;39550;52.230;5.194;2024-02-28T12:01:42;101971.16;;;5.23;94.81
53647;BME280;39550;52.230;5.194;2024-02-28T12:04:09;101991.16;;;5.32;94.65
53647;BME280;39550;52.230;5.194;2024-02-28T12:06:36;101985.19;;;5.31;94.53
53647;BME280;39550;52.230;5.194;2024-02-28T12:09:09;101979.28;;;5.32;95.07
53647;BME280;39550;52.230;5.194;2024-02-28T12:11:35;101981.84;;;5.32;95.22
53647;BME280;39550;52.230;5.194;2024-02-28T12:14:05;101975.94;;;5.33;94.54
53647;BME280;39550;52.230;5.194;2024-02-28T12:16:34;101971.59;;;5.32;95.34
53647;BME280;39550;52.230;5.194;2024-02-28T12:18:59;101976.00;;;5.35;94.58
53647;BME280;39550;52.230;5.194;2024-02-28T12:21:25;101987.94;;;5.36;94.19
53647;BME280;39550;52.230;5.194;2024-02-28T12:23:50;101978.63;;;5.36;95.17
53647;BME280;39550;52.230;5.194;2024-02-28T12:26:17;101965.69;;;5.33;94.34
53647;BME280;39550;52.230;5.194;2024-02-28T12:28:43;101974.38;;;5.37;95.40
53647;BME280;39550;52.230;5.194;2024-02-28T12:31:09;101977.00;;;5.38;94.81
53647;BME280;39550;52.230;5.194;2024-02-28T12:33:36;101965.03;;;5.37;94.50
53647;BME280;39550;52.230;5.194;2024-02-28T12:36:02;101961.97;;;5.44;95.85
53647;BME280;39550;52.230;5.194;2024-02-28T12:38:29;101960.22;;;5.43;94.70
53647;BME280;39550;52.230;5.194;2024-02-28T12:40:54;101955.88;;;5.42;95.32
53647;BME280;39550;52.230;5.194;2024-02-28T12:43:20;101944.59;;;5.37;95.71
53647;BME280;39550;52.230;5.194;2024-02-28T12:45:45;101955.09;;;5.43;95.05
53647;BME280;39550;52.230;5.194;2024-02-28T12:48:10;101958.44;;;5.42;96.12
53647;BME280;39550;52.230;5.194;2024-02-28T12:50:36;101964.47;;;5.43;95.80
53647;BME280;39550;52.230;5.194;2024-02-28T12:53:02;101965.44;;;5.46;95.87